sensor_id;sensor_type;location;lat;lon;timestamp;temperature;humidity
51557;DHT22;38766;53.194;5.532;2022-07-01T00:01:24;16.20;99.90
51557;DHT22;38766;53.194;5.532;2022-07-01T00:03:53;16.20;99.90
51557;DHT22;38766;53.194;5.532;2022-07-01T00:06:19;16.20;99.90
51557;DHT22;38766;53.194;5.532;2022-07-01T00:08:44;16.10;99.90
51557;DHT22;38766;53.194;5.532;2022-07-01T00:11:11;16.10;99.90
51557;DHT22;38766;53.194;5.532;2022-07-01T00:13:37;16.20;99.90
51557;DHT22;38766;53.194;5.532;2022-07-01T00:16:03;16.10;99.90
51557;DHT22;38766;53.194;5.532;2022-07-01T00:18:29;16.10;99.90
51557;DHT22;38766;53.194;5.532;2022-07-01T00:20:55;16.10;99.90
51557;DHT22;38766;53.194;5.532;2022-07-01T00:23:21;16.00;99.90
51557;DHT22;38766;53.194;5.532;2022-07-01T00:25:46;16.00;99.90
51557;DHT22;38766;53.194;5.532;2022-07-01T00:28:12;16.00;99.90
51557;DHT22;38766;53.194;5.532;2022-07-01T00:30:38;16.00;99.90
51557;DHT22;38766;53.194;5.532;2022-07-01T00:33:04;16.00;99.90
51557;DHT22;38766;53.194;5.532;2022-07-01T00:35:30;16.10;99.90
51557;DHT22;38766;53.194;5.532;2022-07-01T00:37:56;16.10;99.90
51557;DHT22;38766;53.194;5.532;2022-07-01T00:40:23;16.10;99.90
51557;DHT22;38766;53.194;5.532;2022-07-01T00:42:49;16.00;99.90
51557;DHT22;38766;53.194;5.532;2022-07-01T00:45:15;16.00;99.90
51557;DHT22;38766;53.194;5.532;2022-07-01T00:47:41;16.00;99.90
51557;DHT22;38766;53.194;5.532;2022-07-01T00:50:09;16.00;99.90
51557;DHT22;38766;53.194;5.532;2022-07-01T00:52:35;16.10;99.90
51557;DHT22;38766;53.194;5.532;2022-07-01T00:55:07;16.10;99.90
51557;DHT22;38766;53.194;5.532;2022-07-01T00:57:34;16.10;99.90
51557;DHT22;38766;53.194;5.532;2022-07-01T01:00:19;16.20;99.90
51557;DHT22;38766;53.194;5.532;2022-07-01T01:02:48;16.20;99.90
51557;DHT22;38766;53.194;5.532;2022-07-01T01:05:13;16.20;99.90
51557;DHT22;38766;53.194;5.532;2022-07-01T01:07:39;16.20;99.90
51557;DHT22;38766;53.194;5.532;2022-07-01T01:10:05;16.10;99.90
51557;DHT22;38766;53.194;5.532;2022-07-01T01:12:32;16.20;99.90
51557;DHT22;38766;53.194;5.532;2022-07-01T01:14:59;16.20;99.90
51557;DHT22;38766;53.194;5.532;2022-07-01T01:17:25;16.20;99.90
51557;DHT22;38766;53.194;5.532;2022-07-01T01:19:51;16.20;99.90
51557;DHT22;38766;53.194;5.532;2022-07-01T01:22:19;16.10;99.90
51557;DHT22;38766;53.194;5.532;2022-07-01T01:24:46;16.10;99.90
51557;DHT22;38766;53.194;5.532;2022-07-01T01:27:15;16.10;99.90
51557;DHT22;38766;53.194;5.532;2022-07-01T01:29:42;16.10;99.90
51557;DHT22;38766;53.194;5.532;2022-07-01T01:32:08;16.10;99.90
51557;DHT22;38766;53.194;5.532;2022-07-01T01:34:35;16.10;99.90
51557;DHT22;38766;53.194;5.532;2022-07-01T01:37:07;16.10;99.90
51557;DHT22;38766;53.194;5.532;2022-07-01T01:39:36;16.00;99.90
51557;DHT22;38766;53.194;5.532;2022-07-01T01:42:05;16.10;99.90
51557;DHT22;38766;53.194;5.532;2022-07-01T01:44:32;16.10;99.90
51557;DHT22;38766;53.194;5.532;2022-07-01T01:46:57;16.10;99.90
51557;DHT22;38766;53.194;5.532;2022-07-01T01:49:23;16.10;99.90
51557;DHT22;38766;53.194;5.532;2022-07-01T01:51:49;16.10;99.90
51557;DHT22;38766;53.194;5.532;2022-07-01T01:54:14;16.00;99.90
51557;DHT22;38766;53.194;5.532;2022-07-01T01:56:40;16.00;99.90
51557;DHT22;38766;53.194;5.532;2022-07-01T01:59:06;16.00;99.90
51557;DHT22;38766;53.194;5.532;2022-07-01T02:01:32;16.00;99.90
51557;DHT22;38766;53.194;5.532;2022-07-01T02:03:58;16.00;99.90
51557;DHT22;38766;53.194;5.532;2022-07-01T02:06:25;16.00;99.90
51557;DHT22;38766;53.194;5.532;2022-07-01T02:08:51;15.90;99.90
51557;DHT22;38766;53.194;5.532;2022-07-01T02:11:16;16.00;99.90
51557;DHT22;38766;53.194;5.532;2022-07-01T02:13:42;16.00;99.90
51557;DHT22;38766;53.194;5.532;2022-07-01T02:16:09;16.00;99.90
51557;DHT22;38766;53.194;5.532;2022-07-01T02:18:35;16.00;99.90
51557;DHT22;38766;53.194;5.532;2022-07-01T02:21:01;16.00;99.90
51557;DHT22;38766;53.194;5.532;2022-07-01T02:23:27;16.00;99.90
51557;DHT22;38766;53.194;5.532;2022-07-01T02:25:53;16.10;99.90
51557;DHT22;38766;53.194;5.532;2022-07-01T02:28:19;16.10;99.90
51557;DHT22;38766;53.194;5.532;2022-07-01T02:30:44;16.10;99.90
51557;DHT22;38766;53.194;5.532;2022-07-01T02:33:10;16.10;99.90
51557;DHT22;38766;53.194;5.532;2022-07-01T02:35:37;16.10;99.90
51557;DHT22;38766;53.194;5.532;2022-07-01T02:38:04;16.20;99.90
51557;DHT22;38766;53.194;5.532;2022-07-01T02:40:30;16.10;99.90
51557;DHT22;38766;53.194;5.532;2022-07-01T02:42:56;16.20;99.90
51557;DHT22;38766;53.194;5.532;2022-07-01T02:45:22;16.20;99.90
51557;DHT22;38766;53.194;5.532;2022-07-01T02:47:50;16.20;99.90
51557;DHT22;38766;53.194;5.532;2022-07-01T02:50:17;16.20;99.90
51557;DHT22;38766;53.194;5.532;2022-07-01T02:52:43;16.20;99.90
51557;DHT22;38766;53.194;5.532;2022-07-01T02:55:11;16.20;99.90
51557;DHT22;38766;53.194;5.532;2022-07-01T02:57:38;16.20;99.90
51557;DHT22;38766;53.194;5.532;2022-07-01T03:00:10;16.10;99.90
51557;DHT22;38766;53.194;5.532;2022-07-01T03:02:36;16.10;99.90
51557;DHT22;38766;53.194;5.532;2022-07-01T03:05:03;16.00;99.90
51557;DHT22;38766;53.194;5.532;2022-07-01T03:07:29;16.00;99.90
51557;DHT22;38766;53.194;5.532;2022-07-01T03:09:54;15.90;99.90
51557;DHT22;38766;53.194;5.532;2022-07-01T03:12:20;15.90;99.90
51557;DHT22;38766;53.194;5.532;2022-07-01T03:14:58;15.90;99.90
51557;DHT22;38766;53.194;5.532;2022-07-01T03:17:25;15.90;99.90
51557;DHT22;38766;53.194;5.532;2022-07-01T03:19:52;15.80;99.90
51557;DHT22;38766;53.194;5.532;2022-07-01T03:22:19;15.80;99.90
51557;DHT22;38766;53.194;5.532;2022-07-01T03:24:46;15.90;99.90
51557;DHT22;38766;53.194;5.532;2022-07-01T03:27:12;15.80;99.90
51557;DHT22;38766;53.194;5.532;2022-07-01T03:29:37;15.80;99.90
51557;DHT22;38766;53.194;5.532;2022-07-01T03:32:03;15.80;99.90
51557;DHT22;38766;53.194;5.532;2022-07-01T03:34:29;15.70;99.90
51557;DHT22;38766;53.194;5.532;2022-07-01T03:36:54;15.70;99.90
51557;DHT22;38766;53.194;5.532;2022-07-01T03:39:20;15.70;99.90
51557;DHT22;38766;53.194;5.532;2022-07-01T03:41:46;15.70;99.90
51557;DHT22;38766;53.194;5.532;2022-07-01T03:44:12;15.70;99.90
51557;DHT22;38766;53.194;5.532;2022-07-01T03:46:38;15.70;99.90
51557;DHT22;38766;53.194;5.532;2022-07-01T03:49:03;15.70;99.90
51557;DHT22;38766;53.194;5.532;2022-07-01T03:51:30;15.60;99.90
51557;DHT22;38766;53.194;5.532;2022-07-01T03:53:55;15.60;99.90
51557;DHT22;38766;53.194;5.532;2022-07-01T03:56:39;15.60;99.90
51557;DHT22;38766;53.194;5.532;2022-07-01T03:59:05;15.60;99.90
51557;DHT22;38766;53.194;5.532;2022-07-01T04:01:31;15.60;99.90
51557;DHT22;38766;53.194;5.532;2022-07-01T04:03:57;15.60;99.90
51557;DHT22;38766;53.194;5.532;2022-07-01T04:06:23;15.60;99.90
51557;DHT22;38766;53.194;5.532;2022-07-01T04:08:49;15.70;99.90
51557;DHT22;38766;53.194;5.532;2022-07-01T04:11:15;15.60;99.90
51557;DHT22;38766;53.194;5.532;2022-07-01T04:13:41;15.60;99.90
51557;DHT22;38766;53.194;5.532;2022-07-01T04:16:09;15.60;99.90
51557;DHT22;38766;53.194;5.532;2022-07-01T04:18:34;15.60;99.90
51557;DHT22;38766;53.194;5.532;2022-07-01T04:21:01;15.70;99.90
51557;DHT22;38766;53.194;5.532;2022-07-01T04:23:45;15.70;99.90
51557;DHT22;38766;53.194;5.532;2022-07-01T04:26:10;15.70;99.90
51557;DHT22;38766;53.194;5.532;2022-07-01T04:28:36;15.60;99.90
51557;DHT22;38766;53.194;5.532;2022-07-01T04:31:01;15.70;99.90
51557;DHT22;38766;53.194;5.532;2022-07-01T04:33:27;15.70;99.90
51557;DHT22;38766;53.194;5.532;2022-07-01T04:35:53;15.70;99.90
51557;DHT22;38766;53.194;5.532;2022-07-01T04:38:18;15.60;99.90
51557;DHT22;38766;53.194;5.532;2022-07-01T04:40:44;15.70;99.90
51557;DHT22;38766;53.194;5.532;2022-07-01T04:43:30;15.70;99.90
51557;DHT22;38766;53.194;5.532;2022-07-01T04:45:55;15.70;99.90
51557;DHT22;38766;53.194;5.532;2022-07-01T04:48:21;15.70;99.90
51557;DHT22;38766;53.194;5.532;2022-07-01T04:50:47;15.70;99.90
51557;DHT22;38766;53.194;5.532;2022-07-01T04:53:14;15.70;99.90
51557;DHT22;38766;53.194;5.532;2022-07-01T04:55:39;15.70;99.90
51557;DHT22;38766;53.194;5.532;2022-07-01T04:58:05;15.70;99.90
51557;DHT22;38766;53.194;5.532;2022-07-01T05:00:31;15.70;99.90
51557;DHT22;38766;53.194;5.532;2022-07-01T05:02:59;15.70;99.90
51557;DHT22;38766;53.194;5.532;2022-07-01T05:05:25;15.70;99.90
51557;DHT22;38766;53.194;5.532;2022-07-01T05:07:51;15.70;99.90
51557;DHT22;38766;53.194;5.532;2022-07-01T05:10:16;15.80;99.90
51557;DHT22;38766;53.194;5.532;2022-07-01T05:12:42;15.80;99.90
51557;DHT22;38766;53.194;5.532;2022-07-01T05:15:08;15.80;99.90
51557;DHT22;38766;53.194;5.532;2022-07-01T05:17:34;15.80;99.90
51557;DHT22;38766;53.194;5.532;2022-07-01T05:20:19;15.80;99.90
51557;DHT22;38766;53.194;5.532;2022-07-01T05:23:03;16.00;99.90
51557;DHT22;38766;53.194;5.532;2022-07-01T05:25:29;15.90;99.90
51557;DHT22;38766;53.194;5.532;2022-07-01T05:27:54;16.10;99.90
51557;DHT22;38766;53.194;5.532;2022-07-01T05:30:21;16.10;99.90
51557;DHT22;38766;53.194;5.532;2022-07-01T05:32:47;16.10;99.90
51557;DHT22;38766;53.194;5.532;2022-07-01T05:35:13;16.10;99.90
51557;DHT22;38766;53.194;5.532;2022-07-01T05:37:40;16.20;99.90
51557;DHT22;38766;53.194;5.532;2022-07-01T05:40:06;16.20;99.90
51557;DHT22;38766;53.194;5.532;2022-07-01T05:42:32;16.20;99.90
51557;DHT22;38766;53.194;5.532;2022-07-01T05:44:58;16.20;99.90
51557;DHT22;38766;53.194;5.532;2022-07-01T05:47:23;16.20;99.90
51557;DHT22;38766;53.194;5.532;2022-07-01T05:49:49;16.20;99.90
51557;DHT22;38766;53.194;5.532;2022-07-01T05:52:15;16.30;99.90
51557;DHT22;38766;53.194;5.532;2022-07-01T05:54:40;16.30;99.90
51557;DHT22;38766;53.194;5.532;2022-07-01T05:57:06;16.30;99.90
51557;DHT22;38766;53.194;5.532;2022-07-01T05:59:32;16.30;99.90
51557;DHT22;38766;53.194;5.532;2022-07-01T06:01:57;16.30;99.90
51557;DHT22;38766;53.194;5.532;2022-07-01T06:04:23;16.30;99.90
51557;DHT22;38766;53.194;5.532;2022-07-01T06:06:49;16.30;99.90
51557;DHT22;38766;53.194;5.532;2022-07-01T06:09:14;16.40;99.90
51557;DHT22;38766;53.194;5.532;2022-07-01T06:11:40;16.30;99.90
51557;DHT22;38766;53.194;5.532;2022-07-01T06:14:05;16.30;99.90
51557;DHT22;38766;53.194;5.532;2022-07-01T06:16:31;16.40;99.90
51557;DHT22;38766;53.194;5.532;2022-07-01T06:18:57;16.30;99.90
51557;DHT22;38766;53.194;5.532;2022-07-01T06:21:22;16.40;99.90
51557;DHT22;38766;53.194;5.532;2022-07-01T06:23:48;16.30;99.90
51557;DHT22;38766;53.194;5.532;2022-07-01T06:26:13;16.40;99.90
51557;DHT22;38766;53.194;5.532;2022-07-01T06:28:40;16.40;99.90
51557;DHT22;38766;53.194;5.532;2022-07-01T06:31:06;16.40;99.90
51557;DHT22;38766;53.194;5.532;2022-07-01T06:33:31;16.40;99.90
51557;DHT22;38766;53.194;5.532;2022-07-01T06:35:57;16.40;99.90
51557;DHT22;38766;53.194;5.532;2022-07-01T06:38:23;16.40;99.90
51557;DHT22;38766;53.194;5.532;2022-07-01T06:40:49;16.40;99.90
51557;DHT22;38766;53.194;5.532;2022-07-01T06:43:35;16.40;99.90
51557;DHT22;38766;53.194;5.532;2022-07-01T06:46:01;16.40;99.90
51557;DHT22;38766;53.194;5.532;2022-07-01T06:48:27;16.40;99.90
51557;DHT22;38766;53.194;5.532;2022-07-01T06:50:52;16.40;99.90
51557;DHT22;38766;53.194;5.532;2022-07-01T06:53:18;16.40;99.90
51557;DHT22;38766;53.194;5.532;2022-07-01T06:55:44;16.40;99.90
51557;DHT22;38766;53.194;5.532;2022-07-01T06:58:09;16.40;99.90
51557;DHT22;38766;53.194;5.532;2022-07-01T07:00:36;16.40;99.90
51557;DHT22;38766;53.194;5.532;2022-07-01T07:03:02;16.50;99.90
51557;DHT22;38766;53.194;5.532;2022-07-01T07:05:28;16.50;99.90
51557;DHT22;38766;53.194;5.532;2022-07-01T07:07:56;16.50;99.90
51557;DHT22;38766;53.194;5.532;2022-07-01T07:10:22;16.50;99.90
51557;DHT22;38766;53.194;5.532;2022-07-01T07:12:48;16.60;99.90
51557;DHT22;38766;53.194;5.532;2022-07-01T07:15:14;16.60;99.90
51557;DHT22;38766;53.194;5.532;2022-07-01T07:17:40;16.70;99.90
51557;DHT22;38766;53.194;5.532;2022-07-01T07:20:06;16.60;99.90
51557;DHT22;38766;53.194;5.532;2022-07-01T07:22:31;16.70;99.90
51557;DHT22;38766;53.194;5.532;2022-07-01T07:24:57;16.70;99.90
51557;DHT22;38766;53.194;5.532;2022-07-01T07:27:23;16.80;99.90
51557;DHT22;38766;53.194;5.532;2022-07-01T07:29:48;16.70;99.90
51557;DHT22;38766;53.194;5.532;2022-07-01T07:32:14;16.70;99.90
51557;DHT22;38766;53.194;5.532;2022-07-01T07:34:39;16.80;99.90
51557;DHT22;38766;53.194;5.532;2022-07-01T07:37:05;16.80;99.90
51557;DHT22;38766;53.194;5.532;2022-07-01T07:39:31;16.80;99.90
51557;DHT22;38766;53.194;5.532;2022-07-01T07:41:57;16.70;99.90
51557;DHT22;38766;53.194;5.532;2022-07-01T07:44:23;16.80;99.90
51557;DHT22;38766;53.194;5.532;2022-07-01T07:46:49;16.80;99.90
51557;DHT22;38766;53.194;5.532;2022-07-01T07:49:14;16.80;99.90
51557;DHT22;38766;53.194;5.532;2022-07-01T07:51:40;16.70;99.90
51557;DHT22;38766;53.194;5.532;2022-07-01T07:54:06;16.80;99.90
51557;DHT22;38766;53.194;5.532;2022-07-01T07:56:31;16.80;99.90
51557;DHT22;38766;53.194;5.532;2022-07-01T07:58:57;16.80;99.90
51557;DHT22;38766;53.194;5.532;2022-07-01T08:01:23;17.00;99.90
51557;DHT22;38766;53.194;5.532;2022-07-01T08:03:48;17.00;99.90
51557;DHT22;38766;53.194;5.532;2022-07-01T08:06:15;17.10;99.90
51557;DHT22;38766;53.194;5.532;2022-07-01T08:08:40;17.10;99.90
51557;DHT22;38766;53.194;5.532;2022-07-01T08:11:06;17.10;99.90
51557;DHT22;38766;53.194;5.532;2022-07-01T08:13:32;17.20;99.90
51557;DHT22;38766;53.194;5.532;2022-07-01T08:15:57;17.20;99.90
51557;DHT22;38766;53.194;5.532;2022-07-01T08:18:23;17.30;99.90
51557;DHT22;38766;53.194;5.532;2022-07-01T08:20:49;17.30;99.90
51557;DHT22;38766;53.194;5.532;2022-07-01T08:23:20;17.30;99.90
51557;DHT22;38766;53.194;5.532;2022-07-01T08:25:47;17.20;99.90
51557;DHT22;38766;53.194;5.532;2022-07-01T08:28:13;17.20;99.90
51557;DHT22;38766;53.194;5.532;2022-07-01T08:30:39;17.20;99.90
51557;DHT22;38766;53.194;5.532;2022-07-01T08:33:04;17.30;99.90
51557;DHT22;38766;53.194;5.532;2022-07-01T08:35:30;17.50;99.90
51557;DHT22;38766;53.194;5.532;2022-07-01T08:37:56;17.90;99.90
51557;DHT22;38766;53.194;5.532;2022-07-01T08:40:29;18.30;99.90
51557;DHT22;38766;53.194;5.532;2022-07-01T08:43:00;18.60;99.90
51557;DHT22;38766;53.194;5.532;2022-07-01T08:45:28;18.90;99.90
51557;DHT22;38766;53.194;5.532;2022-07-01T08:47:56;19.10;99.90
51557;DHT22;38766;53.194;5.532;2022-07-01T08:50:38;19.40;99.90
51557;DHT22;38766;53.194;5.532;2022-07-01T08:53:24;19.50;99.90
51557;DHT22;38766;53.194;5.532;2022-07-01T08:55:50;19.60;99.90
51557;DHT22;38766;53.194;5.532;2022-07-01T08:58:34;19.50;99.90
51557;DHT22;38766;53.194;5.532;2022-07-01T09:01:28;19.50;99.90
51557;DHT22;38766;53.194;5.532;2022-07-01T09:03:56;19.50;99.90
51557;DHT22;38766;53.194;5.532;2022-07-01T09:06:29;19.50;99.90
51557;DHT22;38766;53.194;5.532;2022-07-01T09:08:55;19.60;99.90
51557;DHT22;38766;53.194;5.532;2022-07-01T09:11:35;19.80;99.90
51557;DHT22;38766;53.194;5.532;2022-07-01T09:14:14;19.90;99.90
51557;DHT22;38766;53.194;5.532;2022-07-01T09:16:45;20.00;99.90
51557;DHT22;38766;53.194;5.532;2022-07-01T09:19:13;20.10;99.90
51557;DHT22;38766;53.194;5.532;2022-07-01T09:21:39;20.00;99.90
51557;DHT22;38766;53.194;5.532;2022-07-01T09:29:18;20.30;99.90
51557;DHT22;38766;53.194;5.532;2022-07-01T09:31:49;20.20;99.90
51557;DHT22;38766;53.194;5.532;2022-07-01T09:34:15;20.20;99.90
51557;DHT22;38766;53.194;5.532;2022-07-01T09:36:46;20.10;99.90
51557;DHT22;38766;53.194;5.532;2022-07-01T09:39:16;20.10;99.90
51557;DHT22;38766;53.194;5.532;2022-07-01T09:41:42;20.10;99.90
51557;DHT22;38766;53.194;5.532;2022-07-01T09:44:08;20.20;99.90
51557;DHT22;38766;53.194;5.532;2022-07-01T09:46:34;20.20;99.90
51557;DHT22;38766;53.194;5.532;2022-07-01T09:49:00;20.10;99.90
51557;DHT22;38766;53.194;5.532;2022-07-01T09:51:26;20.10;99.90
51557;DHT22;38766;53.194;5.532;2022-07-01T09:53:53;20.00;99.90
51557;DHT22;38766;53.194;5.532;2022-07-01T09:56:19;20.20;99.90
51557;DHT22;38766;53.194;5.532;2022-07-01T09:58:45;20.40;99.90
51557;DHT22;38766;53.194;5.532;2022-07-01T10:01:11;20.50;99.90
51557;DHT22;38766;53.194;5.532;2022-07-01T10:03:38;20.50;99.90
51557;DHT22;38766;53.194;5.532;2022-07-01T10:14:10;20.00;99.90
51557;DHT22;38766;53.194;5.532;2022-07-01T10:16:37;20.00;99.90
51557;DHT22;38766;53.194;5.532;2022-07-01T10:21:50;20.20;99.90
51557;DHT22;38766;53.194;5.532;2022-07-01T10:24:22;20.30;99.90
51557;DHT22;38766;53.194;5.532;2022-07-01T10:26:48;20.20;99.90
51557;DHT22;38766;53.194;5.532;2022-07-01T10:29:33;20.20;99.90
51557;DHT22;38766;53.194;5.532;2022-07-01T10:32:08;20.10;99.90
51557;DHT22;38766;53.194;5.532;2022-07-01T10:34:36;20.20;99.90
51557;DHT22;38766;53.194;5.532;2022-07-01T10:37:04;20.30;99.90
51557;DHT22;38766;53.194;5.532;2022-07-01T10:42:21;20.70;99.90
51557;DHT22;38766;53.194;5.532;2022-07-01T10:45:09;20.90;99.90
51557;DHT22;38766;53.194;5.532;2022-07-01T10:47:36;20.90;99.90
51557;DHT22;38766;53.194;5.532;2022-07-01T10:50:10;20.90;99.90
51557;DHT22;38766;53.194;5.532;2022-07-01T10:52:37;20.80;99.90
51557;DHT22;38766;53.194;5.532;2022-07-01T10:55:06;20.80;99.90
51557;DHT22;38766;53.194;5.532;2022-07-01T10:57:36;20.80;99.90
51557;DHT22;38766;53.194;5.532;2022-07-01T11:02:33;20.90;99.90
51557;DHT22;38766;53.194;5.532;2022-07-01T11:05:02;21.00;99.90
51557;DHT22;38766;53.194;5.532;2022-07-01T11:07:30;21.20;99.90
51557;DHT22;38766;53.194;5.532;2022-07-01T11:09:58;21.10;99.90
51557;DHT22;38766;53.194;5.532;2022-07-01T11:12:24;21.00;99.90
51557;DHT22;38766;53.194;5.532;2022-07-01T11:14:51;21.10;99.90
51557;DHT22;38766;53.194;5.532;2022-07-01T11:17:17;21.10;99.90
51557;DHT22;38766;53.194;5.532;2022-07-01T11:19:51;21.10;99.90
51557;DHT22;38766;53.194;5.532;2022-07-01T11:22:33;21.00;99.90
51557;DHT22;38766;53.194;5.532;2022-07-01T11:25:03;21.00;99.90
51557;DHT22;38766;53.194;5.532;2022-07-01T11:27:30;21.00;99.90
51557;DHT22;38766;53.194;5.532;2022-07-01T11:29:58;21.10;99.90
51557;DHT22;38766;53.194;5.532;2022-07-01T11:32:36;21.00;99.90
51557;DHT22;38766;53.194;5.532;2022-07-01T11:35:04;21.00;99.90
51557;DHT22;38766;53.194;5.532;2022-07-01T11:37:50;20.80;99.90
51557;DHT22;38766;53.194;5.532;2022-07-01T11:40:34;20.90;99.90
51557;DHT22;38766;53.194;5.532;2022-07-01T11:43:00;21.10;99.90
51557;DHT22;38766;53.194;5.532;2022-07-01T11:45:26;21.30;99.90
51557;DHT22;38766;53.194;5.532;2022-07-01T11:47:53;21.30;99.90
51557;DHT22;38766;53.194;5.532;2022-07-01T11:50:19;21.30;99.70
51557;DHT22;38766;53.194;5.532;2022-07-01T11:52:45;21.20;99.00
51557;DHT22;38766;53.194;5.532;2022-07-01T11:55:11;21.30;99.20
51557;DHT22;38766;53.194;5.532;2022-07-01T11:57:37;21.40;99.10
51557;DHT22;38766;53.194;5.532;2022-07-01T12:00:12;21.50;99.10
51557;DHT22;38766;53.194;5.532;2022-07-01T12:02:39;21.70;99.30
51557;DHT22;38766;53.194;5.532;2022-07-01T12:05:05;21.60;98.00
51557;DHT22;38766;53.194;5.532;2022-07-01T12:07:31;21.70;98.00
51557;DHT22;38766;53.194;5.532;2022-07-01T12:09:59;21.80;98.30
51557;DHT22;38766;53.194;5.532;2022-07-01T12:12:27;21.90;98.50
51557;DHT22;38766;53.194;5.532;2022-07-01T12:14:58;21.90;97.60
51557;DHT22;38766;53.194;5.532;2022-07-01T12:17:25;21.80;96.50
51557;DHT22;38766;53.194;5.532;2022-07-01T12:19:52;21.90;96.90
51557;DHT22;38766;53.194;5.532;2022-07-01T12:22:21;22.00;96.70
51557;DHT22;38766;53.194;5.532;2022-07-01T12:24:49;22.00;97.20
51557;DHT22;38766;53.194;5.532;2022-07-01T12:27:16;22.10;97.30
51557;DHT22;38766;53.194;5.532;2022-07-01T12:34:55;22.20;96.80
51557;DHT22;38766;53.194;5.532;2022-07-01T12:39:58;22.20;96.70
51557;DHT22;38766;53.194;5.532;2022-07-01T12:44:55;22.10;96.90
51557;DHT22;38766;53.194;5.532;2022-07-01T12:47:32;22.10;97.00
51557;DHT22;38766;53.194;5.532;2022-07-01T12:50:14;22.10;96.90
51557;DHT22;38766;53.194;5.532;2022-07-01T12:52:43;22.20;96.90
51557;DHT22;38766;53.194;5.532;2022-07-01T12:55:21;22.10;96.60
51557;DHT22;38766;53.194;5.532;2022-07-01T12:57:48;22.30;97.00
51557;DHT22;38766;53.194;5.532;2022-07-01T13:00:15;22.30;96.80
51557;DHT22;38766;53.194;5.532;2022-07-01T13:02:41;22.40;96.60
51557;DHT22;38766;53.194;5.532;2022-07-01T13:05:07;22.40;96.60
51557;DHT22;38766;53.194;5.532;2022-07-01T13:07:33;22.40;96.50
51557;DHT22;38766;53.194;5.532;2022-07-01T13:09:59;22.40;96.50
51557;DHT22;38766;53.194;5.532;2022-07-01T13:12:24;22.40;96.30
51557;DHT22;38766;53.194;5.532;2022-07-01T13:14:50;22.40;96.00
51557;DHT22;38766;53.194;5.532;2022-07-01T13:17:16;22.40;95.90
51557;DHT22;38766;53.194;5.532;2022-07-01T13:19:41;22.40;95.50
51557;DHT22;38766;53.194;5.532;2022-07-01T13:22:07;22.40;95.40
51557;DHT22;38766;53.194;5.532;2022-07-01T13:24:34;22.40;95.60
51557;DHT22;38766;53.194;5.532;2022-07-01T13:26:59;22.40;94.90
51557;DHT22;38766;53.194;5.532;2022-07-01T13:29:25;22.50;95.40
51557;DHT22;38766;53.194;5.532;2022-07-01T13:31:51;22.50;95.00
51557;DHT22;38766;53.194;5.532;2022-07-01T13:34:16;22.50;94.40
51557;DHT22;38766;53.194;5.532;2022-07-01T13:36:42;22.50;94.20
51557;DHT22;38766;53.194;5.532;2022-07-01T13:39:08;22.50;95.10
51557;DHT22;38766;53.194;5.532;2022-07-01T13:41:34;22.60;95.10
51557;DHT22;38766;53.194;5.532;2022-07-01T13:44:00;22.60;95.00
51557;DHT22;38766;53.194;5.532;2022-07-01T13:46:25;22.70;95.00
51557;DHT22;38766;53.194;5.532;2022-07-01T13:48:51;22.70;94.80
51557;DHT22;38766;53.194;5.532;2022-07-01T13:51:17;22.60;94.60
51557;DHT22;38766;53.194;5.532;2022-07-01T13:53:42;22.60;94.80
51557;DHT22;38766;53.194;5.532;2022-07-01T13:56:08;22.50;94.40
51557;DHT22;38766;53.194;5.532;2022-07-01T13:58:34;22.40;94.60
51557;DHT22;38766;53.194;5.532;2022-07-01T14:00:59;22.20;94.90
51557;DHT22;38766;53.194;5.532;2022-07-01T14:03:25;22.10;95.10
51557;DHT22;38766;53.194;5.532;2022-07-01T14:05:51;22.00;95.00
51557;DHT22;38766;53.194;5.532;2022-07-01T14:08:17;22.00;95.00
51557;DHT22;38766;53.194;5.532;2022-07-01T14:10:42;22.00;94.30
51557;DHT22;38766;53.194;5.532;2022-07-01T14:13:10;22.00;94.20
51557;DHT22;38766;53.194;5.532;2022-07-01T14:15:36;22.00;94.60
51557;DHT22;38766;53.194;5.532;2022-07-01T14:18:02;22.10;94.50
51557;DHT22;38766;53.194;5.532;2022-07-01T14:20:28;22.10;94.80
51557;DHT22;38766;53.194;5.532;2022-07-01T14:22:54;22.10;95.20
51557;DHT22;38766;53.194;5.532;2022-07-01T14:25:21;22.20;95.10
51557;DHT22;38766;53.194;5.532;2022-07-01T14:27:47;22.20;94.80
51557;DHT22;38766;53.194;5.532;2022-07-01T14:30:15;22.20;94.60
51557;DHT22;38766;53.194;5.532;2022-07-01T14:32:41;22.20;94.60
51557;DHT22;38766;53.194;5.532;2022-07-01T14:35:07;22.30;94.70
51557;DHT22;38766;53.194;5.532;2022-07-01T14:37:34;22.30;94.80
51557;DHT22;38766;53.194;5.532;2022-07-01T14:39:59;22.30;94.30
51557;DHT22;38766;53.194;5.532;2022-07-01T14:42:26;22.30;94.30
51557;DHT22;38766;53.194;5.532;2022-07-01T14:44:53;22.20;94.10
51557;DHT22;38766;53.194;5.532;2022-07-01T14:47:19;22.30;94.00
51557;DHT22;38766;53.194;5.532;2022-07-01T14:49:44;22.20;93.80
51557;DHT22;38766;53.194;5.532;2022-07-01T14:52:11;22.20;93.10
51557;DHT22;38766;53.194;5.532;2022-07-01T14:54:38;22.10;93.10
51557;DHT22;38766;53.194;5.532;2022-07-01T14:57:04;22.10;93.60
51557;DHT22;38766;53.194;5.532;2022-07-01T14:59:30;22.00;93.60
51557;DHT22;38766;53.194;5.532;2022-07-01T15:01:56;22.00;94.40
51557;DHT22;38766;53.194;5.532;2022-07-01T15:04:26;22.00;94.80
51557;DHT22;38766;53.194;5.532;2022-07-01T15:06:52;22.10;94.80
51557;DHT22;38766;53.194;5.532;2022-07-01T15:09:17;22.10;94.90
51557;DHT22;38766;53.194;5.532;2022-07-01T15:11:47;22.00;95.00
51557;DHT22;38766;53.194;5.532;2022-07-01T15:14:13;21.90;94.80
51557;DHT22;38766;53.194;5.532;2022-07-01T15:16:39;21.80;94.80
51557;DHT22;38766;53.194;5.532;2022-07-01T15:19:04;21.60;94.90
51557;DHT22;38766;53.194;5.532;2022-07-01T15:21:30;21.50;95.00
51557;DHT22;38766;53.194;5.532;2022-07-01T15:23:56;21.30;95.00
51557;DHT22;38766;53.194;5.532;2022-07-01T15:26:22;21.20;95.20
51557;DHT22;38766;53.194;5.532;2022-07-01T15:28:48;21.10;95.00
51557;DHT22;38766;53.194;5.532;2022-07-01T15:31:14;21.00;95.30
51557;DHT22;38766;53.194;5.532;2022-07-01T15:33:40;21.10;95.40
51557;DHT22;38766;53.194;5.532;2022-07-01T15:36:05;21.10;95.50
51557;DHT22;38766;53.194;5.532;2022-07-01T15:38:31;21.20;95.70
51557;DHT22;38766;53.194;5.532;2022-07-01T15:40:57;21.20;96.00
51557;DHT22;38766;53.194;5.532;2022-07-01T15:43:22;21.30;96.00
51557;DHT22;38766;53.194;5.532;2022-07-01T15:45:48;21.30;96.30
51557;DHT22;38766;53.194;5.532;2022-07-01T15:48:14;21.30;96.50
51557;DHT22;38766;53.194;5.532;2022-07-01T15:50:41;21.30;96.20
51557;DHT22;38766;53.194;5.532;2022-07-01T15:53:08;21.30;96.30
51557;DHT22;38766;53.194;5.532;2022-07-01T15:55:35;21.20;96.20
51557;DHT22;38766;53.194;5.532;2022-07-01T15:58:07;21.30;96.50
51557;DHT22;38766;53.194;5.532;2022-07-01T16:00:33;21.30;96.60
51557;DHT22;38766;53.194;5.532;2022-07-01T16:02:59;21.20;96.60